sensor_id;sensor_type;location;lat;lon;timestamp;P1;durP1;ratioP1;P2;durP2;ratioP2
30605;SDS011;17371;51.328;3.860;2023-03-24T00:02:17;5.53;;;3.10;;
30605;SDS011;17371;51.328;3.860;2023-03-24T00:04:43;5.47;;;3.20;;
30605;SDS011;17371;51.328;3.860;2023-03-24T00:07:12;7.45;;;2.85;;
30605;SDS011;17371;51.328;3.860;2023-03-24T00:09:38;8.02;;;3.22;;
30605;SDS011;17371;51.328;3.860;2023-03-24T00:12:03;6.50;;;3.40;;
30605;SDS011;17371;51.328;3.860;2023-03-24T00:14:29;3.87;;;2.80;;
30605;SDS011;17371;51.328;3.860;2023-03-24T00:16:54;6.97;;;2.90;;
30605;SDS011;17371;51.328;3.860;2023-03-24T00:19:20;5.83;;;3.00;;
30605;SDS011;17371;51.328;3.860;2023-03-24T00:21:45;8.23;;;2.90;;
30605;SDS011;17371;51.328;3.860;2023-03-24T00:24:12;4.33;;;2.87;;
30605;SDS011;17371;51.328;3.860;2023-03-24T00:26:39;6.78;;;3.30;;
30605;SDS011;17371;51.328;3.860;2023-03-24T00:29:05;6.43;;;3.28;;
30605;SDS011;17371;51.328;3.860;2023-03-24T00:31:32;6.90;;;3.30;;
30605;SDS011;17371;51.328;3.860;2023-03-24T00:33:57;6.97;;;2.95;;
30605;SDS011;17371;51.328;3.860;2023-03-24T00:36:24;4.90;;;2.80;;
30605;SDS011;17371;51.328;3.860;2023-03-24T00:38:50;6.32;;;3.08;;
30605;SDS011;17371;51.328;3.860;2023-03-24T00:41:18;5.80;;;2.93;;
30605;SDS011;17371;51.328;3.860;2023-03-24T00:43:44;7.07;;;3.10;;
30605;SDS011;17371;51.328;3.860;2023-03-24T00:46:10;6.57;;;3.20;;
30605;SDS011;17371;51.328;3.860;2023-03-24T00:48:36;4.43;;;2.92;;
30605;SDS011;17371;51.328;3.860;2023-03-24T00:51:03;4.55;;;2.83;;
30605;SDS011;17371;51.328;3.860;2023-03-24T00:53:29;4.00;;;2.47;;
30605;SDS011;17371;51.328;3.860;2023-03-24T00:55:55;6.20;;;2.92;;
30605;SDS011;17371;51.328;3.860;2023-03-24T00:58:22;8.07;;;3.00;;
30605;SDS011;17371;51.328;3.860;2023-03-24T01:00:49;6.80;;;3.20;;
30605;SDS011;17371;51.328;3.860;2023-03-24T01:03:16;8.45;;;3.20;;
30605;SDS011;17371;51.328;3.860;2023-03-24T01:05:42;7.35;;;3.88;;
30605;SDS011;17371;51.328;3.860;2023-03-24T01:08:07;7.03;;;3.70;;
30605;SDS011;17371;51.328;3.860;2023-03-24T01:10:34;6.90;;;3.67;;
30605;SDS011;17371;51.328;3.860;2023-03-24T01:13:01;8.60;;;3.75;;
30605;SDS011;17371;51.328;3.860;2023-03-24T01:15:29;7.63;;;3.70;;
30605;SDS011;17371;51.328;3.860;2023-03-24T01:17:55;6.63;;;3.67;;
30605;SDS011;17371;51.328;3.860;2023-03-24T01:20:21;7.60;;;3.83;;
30605;SDS011;17371;51.328;3.860;2023-03-24T01:22:47;5.68;;;3.20;;
30605;SDS011;17371;51.328;3.860;2023-03-24T01:25:14;4.80;;;2.73;;
30605;SDS011;17371;51.328;3.860;2023-03-24T01:27:40;4.93;;;2.80;;
30605;SDS011;17371;51.328;3.860;2023-03-24T01:30:07;4.10;;;2.13;;
30605;SDS011;17371;51.328;3.860;2023-03-24T01:32:34;2.75;;;1.70;;
30605;SDS011;17371;51.328;3.860;2023-03-24T01:34:59;2.97;;;1.50;;
30605;SDS011;17371;51.328;3.860;2023-03-24T01:37:25;2.72;;;1.38;;
30605;SDS011;17371;51.328;3.860;2023-03-24T01:39:50;3.10;;;1.20;;
30605;SDS011;17371;51.328;3.860;2023-03-24T01:42:16;2.13;;;1.17;;
30605;SDS011;17371;51.328;3.860;2023-03-24T01:44:44;2.30;;;1.20;;
30605;SDS011;17371;51.328;3.860;2023-03-24T01:47:10;3.95;;;1.50;;
30605;SDS011;17371;51.328;3.860;2023-03-24T01:49:37;4.00;;;1.40;;
30605;SDS011;17371;51.328;3.860;2023-03-24T01:52:06;2.28;;;1.23;;
30605;SDS011;17371;51.328;3.860;2023-03-24T01:54:34;1.75;;;1.38;;
30605;SDS011;17371;51.328;3.860;2023-03-24T01:57:02;2.23;;;1.20;;
30605;SDS011;17371;51.328;3.860;2023-03-24T01:59:30;2.83;;;1.30;;
30605;SDS011;17371;51.328;3.860;2023-03-24T02:01:57;2.40;;;1.52;;
30605;SDS011;17371;51.328;3.860;2023-03-24T02:04:22;2.87;;;1.60;;
30605;SDS011;17371;51.328;3.860;2023-03-24T02:06:49;3.53;;;1.37;;
30605;SDS011;17371;51.328;3.860;2023-03-24T02:09:15;4.10;;;1.40;;
30605;SDS011;17371;51.328;3.860;2023-03-24T02:11:40;3.47;;;1.43;;
30605;SDS011;17371;51.328;3.860;2023-03-24T02:14:07;5.07;;;1.60;;
30605;SDS011;17371;51.328;3.860;2023-03-24T02:16:51;4.53;;;1.77;;
30605;SDS011;17371;51.328;3.860;2023-03-24T02:22:48;5.13;;;2.45;;
30605;SDS011;17371;51.328;3.860;2023-03-24T02:25:30;7.37;;;2.60;;
30605;SDS011;17371;51.328;3.860;2023-03-24T02:28:12;7.93;;;3.17;;
30605;SDS011;17371;51.328;3.860;2023-03-24T02:30:52;9.98;;;3.03;;
30605;SDS011;17371;51.328;3.860;2023-03-24T02:33:36;8.98;;;2.70;;
30605;SDS011;17371;51.328;3.860;2023-03-24T02:36:39;8.00;;;2.85;;
30605;SDS011;17371;51.328;3.860;2023-03-24T02:39:25;6.80;;;2.17;;
30605;SDS011;17371;51.328;3.860;2023-03-24T02:42:03;11.98;;;2.00;;
30605;SDS011;17371;51.328;3.860;2023-03-24T02:44:36;9.45;;;2.40;;
30605;SDS011;17371;51.328;3.860;2023-03-24T02:47:07;15.00;;;1.95;;
30605;SDS011;17371;51.328;3.860;2023-03-24T02:49:36;10.82;;;2.13;;
30605;SDS011;17371;51.328;3.860;2023-03-24T02:52:10;8.70;;;2.43;;
30605;SDS011;17371;51.328;3.860;2023-03-24T02:54:42;6.43;;;2.00;;
30605;SDS011;17371;51.328;3.860;2023-03-24T02:57:11;7.38;;;2.13;;
30605;SDS011;17371;51.328;3.860;2023-03-24T02:59:39;14.98;;;2.38;;
30605;SDS011;17371;51.328;3.860;2023-03-24T03:02:08;8.73;;;2.30;;
30605;SDS011;17371;51.328;3.860;2023-03-24T03:04:36;10.87;;;2.27;;
30605;SDS011;17371;51.328;3.860;2023-03-24T03:07:04;11.77;;;2.20;;
30605;SDS011;17371;51.328;3.860;2023-03-24T03:09:31;12.05;;;2.30;;
30605;SDS011;17371;51.328;3.860;2023-03-24T03:11:59;8.57;;;1.70;;
30605;SDS011;17371;51.328;3.860;2023-03-24T03:14:27;13.38;;;2.38;;
30605;SDS011;17371;51.328;3.860;2023-03-24T03:16:56;10.23;;;2.20;;
30605;SDS011;17371;51.328;3.860;2023-03-24T03:19:26;13.48;;;2.60;;
30605;SDS011;17371;51.328;3.860;2023-03-24T03:21:54;12.65;;;2.40;;
30605;SDS011;17371;51.328;3.860;2023-03-24T03:24:21;14.07;;;2.55;;
30605;SDS011;17371;51.328;3.860;2023-03-24T03:26:49;12.23;;;2.72;;
30605;SDS011;17371;51.328;3.860;2023-03-24T03:29:17;9.33;;;2.30;;
30605;SDS011;17371;51.328;3.860;2023-03-24T03:31:45;10.73;;;2.20;;
30605;SDS011;17371;51.328;3.860;2023-03-24T03:34:14;10.17;;;2.30;;
30605;SDS011;17371;51.328;3.860;2023-03-24T03:36:44;11.75;;;2.17;;
30605;SDS011;17371;51.328;3.860;2023-03-24T03:39:12;13.00;;;2.42;;
30605;SDS011;17371;51.328;3.860;2023-03-24T03:41:39;10.77;;;2.00;;
30605;SDS011;17371;51.328;3.860;2023-03-24T03:44:06;13.68;;;2.28;;
30605;SDS011;17371;51.328;3.860;2023-03-24T03:46:33;9.57;;;2.10;;
30605;SDS011;17371;51.328;3.860;2023-03-24T03:48:58;11.13;;;2.80;;
30605;SDS011;17371;51.328;3.860;2023-03-24T03:51:24;18.00;;;2.80;;
30605;SDS011;17371;51.328;3.860;2023-03-24T03:53:50;14.17;;;2.23;;
30605;SDS011;17371;51.328;3.860;2023-03-24T03:56:17;8.82;;;2.30;;
30605;SDS011;17371;51.328;3.860;2023-03-24T03:58:43;17.48;;;2.60;;
30605;SDS011;17371;51.328;3.860;2023-03-24T04:01:09;14.30;;;2.50;;
30605;SDS011;17371;51.328;3.860;2023-03-24T04:03:46;16.13;;;2.75;;
30605;SDS011;17371;51.328;3.860;2023-03-24T04:06:19;15.13;;;2.20;;
30605;SDS011;17371;51.328;3.860;2023-03-24T04:08:49;13.50;;;2.60;;
30605;SDS011;17371;51.328;3.860;2023-03-24T04:11:30;14.52;;;3.10;;
30605;SDS011;17371;51.328;3.860;2023-03-24T04:13:59;13.25;;;2.38;;
30605;SDS011;17371;51.328;3.860;2023-03-24T04:16:33;13.45;;;2.85;;
30605;SDS011;17371;51.328;3.860;2023-03-24T04:19:12;18.52;;;2.85;;
30605;SDS011;17371;51.328;3.860;2023-03-24T04:21:49;11.43;;;2.40;;
30605;SDS011;17371;51.328;3.860;2023-03-24T04:24:21;12.65;;;2.40;;
30605;SDS011;17371;51.328;3.860;2023-03-24T04:26:53;11.07;;;2.33;;
30605;SDS011;17371;51.328;3.860;2023-03-24T04:29:22;18.85;;;2.53;;
30605;SDS011;17371;51.328;3.860;2023-03-24T04:31:54;18.65;;;2.85;;
30605;SDS011;17371;51.328;3.860;2023-03-24T04:34:26;11.77;;;2.57;;
30605;SDS011;17371;51.328;3.860;2023-03-24T04:36:53;11.60;;;2.38;;
30605;SDS011;17371;51.328;3.860;2023-03-24T04:39:22;13.10;;;3.05;;
30605;SDS011;17371;51.328;3.860;2023-03-24T04:41:49;12.93;;;2.22;;
30605;SDS011;17371;51.328;3.860;2023-03-24T04:44:15;18.73;;;2.83;;
30605;SDS011;17371;51.328;3.860;2023-03-24T04:46:41;14.55;;;2.58;;
30605;SDS011;17371;51.328;3.860;2023-03-24T04:49:07;13.30;;;2.87;;
30605;SDS011;17371;51.328;3.860;2023-03-24T04:51:34;15.55;;;2.40;;
30605;SDS011;17371;51.328;3.860;2023-03-24T04:53:59;14.05;;;2.53;;
30605;SDS011;17371;51.328;3.860;2023-03-24T04:56:27;13.57;;;2.50;;
30605;SDS011;17371;51.328;3.860;2023-03-24T04:58:54;18.58;;;2.92;;
30605;SDS011;17371;51.328;3.860;2023-03-24T05:01:19;16.37;;;2.90;;
30605;SDS011;17371;51.328;3.860;2023-03-24T05:03:45;15.40;;;2.60;;
30605;SDS011;17371;51.328;3.860;2023-03-24T05:06:10;18.37;;;3.10;;
30605;SDS011;17371;51.328;3.860;2023-03-24T05:08:37;14.13;;;2.80;;
30605;SDS011;17371;51.328;3.860;2023-03-24T05:11:02;15.57;;;2.83;;
30605;SDS011;17371;51.328;3.860;2023-03-24T05:13:28;14.82;;;2.85;;
30605;SDS011;17371;51.328;3.860;2023-03-24T05:15:53;14.43;;;3.33;;
30605;SDS011;17371;51.328;3.860;2023-03-24T05:18:19;8.63;;;2.17;;
30605;SDS011;17371;51.328;3.860;2023-03-24T05:20:44;15.13;;;3.80;;
30605;SDS011;17371;51.328;3.860;2023-03-24T05:23:10;15.73;;;2.83;;
30605;SDS011;17371;51.328;3.860;2023-03-24T05:25:36;13.25;;;2.50;;
30605;SDS011;17371;51.328;3.860;2023-03-24T05:28:02;17.27;;;2.87;;
30605;SDS011;17371;51.328;3.860;2023-03-24T05:30:28;14.48;;;2.60;;
30605;SDS011;17371;51.328;3.860;2023-03-24T05:32:53;21.03;;;2.83;;
30605;SDS011;17371;51.328;3.860;2023-03-24T05:35:18;17.40;;;2.83;;
30605;SDS011;17371;51.328;3.860;2023-03-24T05:37:44;15.82;;;2.83;;
30605;SDS011;17371;51.328;3.860;2023-03-24T05:40:10;17.33;;;3.10;;
30605;SDS011;17371;51.328;3.860;2023-03-24T05:42:37;20.27;;;3.70;;
30605;SDS011;17371;51.328;3.860;2023-03-24T05:45:03;15.55;;;2.45;;
30605;SDS011;17371;51.328;3.860;2023-03-24T05:47:29;14.98;;;3.30;;
30605;SDS011;17371;51.328;3.860;2023-03-24T05:49:54;18.77;;;3.43;;
30605;SDS011;17371;51.328;3.860;2023-03-24T05:52:19;15.83;;;2.53;;
30605;SDS011;17371;51.328;3.860;2023-03-24T05:54:45;26.55;;;3.42;;
30605;SDS011;17371;51.328;3.860;2023-03-24T05:57:11;16.43;;;2.70;;
30605;SDS011;17371;51.328;3.860;2023-03-24T05:59:38;14.95;;;2.97;;
30605;SDS011;17371;51.328;3.860;2023-03-24T06:02:03;11.17;;;2.27;;
30605;SDS011;17371;51.328;3.860;2023-03-24T06:04:28;14.57;;;2.80;;
30605;SDS011;17371;51.328;3.860;2023-03-24T06:06:54;10.87;;;2.80;;
30605;SDS011;17371;51.328;3.860;2023-03-24T06:09:19;14.47;;;2.87;;
30605;SDS011;17371;51.328;3.860;2023-03-24T06:11:44;18.23;;;2.97;;
30605;SDS011;17371;51.328;3.860;2023-03-24T06:14:10;15.87;;;2.17;;
30605;SDS011;17371;51.328;3.860;2023-03-24T06:16:37;12.67;;;2.50;;
30605;SDS011;17371;51.328;3.860;2023-03-24T06:19:02;15.77;;;2.80;;
30605;SDS011;17371;51.328;3.860;2023-03-24T06:21:28;10.30;;;2.30;;
30605;SDS011;17371;51.328;3.860;2023-03-24T06:23:53;13.68;;;2.53;;
30605;SDS011;17371;51.328;3.860;2023-03-24T06:26:18;15.73;;;2.90;;
30605;SDS011;17371;51.328;3.860;2023-03-24T06:28:44;19.20;;;4.03;;
30605;SDS011;17371;51.328;3.860;2023-03-24T06:31:09;12.00;;;2.67;;
30605;SDS011;17371;51.328;3.860;2023-03-24T06:33:36;12.50;;;3.67;;
30605;SDS011;17371;51.328;3.860;2023-03-24T06:36:01;16.33;;;3.03;;
30605;SDS011;17371;51.328;3.860;2023-03-24T06:38:27;15.40;;;2.77;;
30605;SDS011;17371;51.328;3.860;2023-03-24T06:40:52;16.30;;;2.78;;
30605;SDS011;17371;51.328;3.860;2023-03-24T06:43:17;17.17;;;2.80;;
30605;SDS011;17371;51.328;3.860;2023-03-24T06:45:43;13.73;;;3.17;;
30605;SDS011;17371;51.328;3.860;2023-03-24T06:48:08;14.53;;;2.80;;
30605;SDS011;17371;51.328;3.860;2023-03-24T06:50:35;20.63;;;3.37;;
30605;SDS011;17371;51.328;3.860;2023-03-24T06:53:00;10.55;;;3.03;;
30605;SDS011;17371;51.328;3.860;2023-03-24T06:55:26;14.17;;;2.63;;
30605;SDS011;17371;51.328;3.860;2023-03-24T06:57:52;20.45;;;3.50;;
30605;SDS011;17371;51.328;3.860;2023-03-24T07:00:17;13.23;;;3.30;;
30605;SDS011;17371;51.328;3.860;2023-03-24T07:02:43;17.92;;;3.05;;
30605;SDS011;17371;51.328;3.860;2023-03-24T07:05:08;13.10;;;2.90;;
30605;SDS011;17371;51.328;3.860;2023-03-24T07:07:35;16.40;;;3.73;;
30605;SDS011;17371;51.328;3.860;2023-03-24T07:10:01;16.02;;;3.05;;
30605;SDS011;17371;51.328;3.860;2023-03-24T07:12:27;14.90;;;3.50;;
30605;SDS011;17371;51.328;3.860;2023-03-24T07:14:52;14.60;;;3.20;;
30605;SDS011;17371;51.328;3.860;2023-03-24T07:17:18;13.00;;;3.40;;
30605;SDS011;17371;51.328;3.860;2023-03-24T07:19:43;15.50;;;3.93;;
30605;SDS011;17371;51.328;3.860;2023-03-24T07:22:08;11.17;;;3.00;;
30605;SDS011;17371;51.328;3.860;2023-03-24T07:24:35;14.00;;;2.33;;
30605;SDS011;17371;51.328;3.860;2023-03-24T07:27:00;16.90;;;2.95;;
30605;SDS011;17371;51.328;3.860;2023-03-24T07:29:26;12.30;;;2.40;;
30605;SDS011;17371;51.328;3.860;2023-03-24T07:31:51;15.15;;;2.90;;
30605;SDS011;17371;51.328;3.860;2023-03-24T07:34:17;12.50;;;2.50;;
30605;SDS011;17371;51.328;3.860;2023-03-24T07:36:42;15.53;;;3.43;;
30605;SDS011;17371;51.328;3.860;2023-03-24T07:39:07;16.23;;;2.97;;
30605;SDS011;17371;51.328;3.860;2023-03-24T07:41:34;16.47;;;2.97;;
30605;SDS011;17371;51.328;3.860;2023-03-24T07:44:00;18.05;;;2.90;;
30605;SDS011;17371;51.328;3.860;2023-03-24T07:46:25;16.90;;;2.70;;
30605;SDS011;17371;51.328;3.860;2023-03-24T07:48:51;16.27;;;2.88;;
30605;SDS011;17371;51.328;3.860;2023-03-24T07:51:16;13.80;;;2.92;;
30605;SDS011;17371;51.328;3.860;2023-03-24T07:53:41;16.93;;;2.40;;
30605;SDS011;17371;51.328;3.860;2023-03-24T07:56:07;14.70;;;2.63;;
30605;SDS011;17371;51.328;3.860;2023-03-24T07:58:34;12.97;;;2.80;;
30605;SDS011;17371;51.328;3.860;2023-03-24T08:00:59;15.30;;;2.80;;
30605;SDS011;17371;51.328;3.860;2023-03-24T08:03:24;15.57;;;3.17;;
30605;SDS011;17371;51.328;3.860;2023-03-24T08:05:50;17.07;;;2.57;;
30605;SDS011;17371;51.328;3.860;2023-03-24T08:08:15;9.77;;;2.80;;
30605;SDS011;17371;51.328;3.860;2023-03-24T08:10:40;12.27;;;2.83;;
30605;SDS011;17371;51.328;3.860;2023-03-24T08:13:06;10.77;;;2.90;;
30605;SDS011;17371;51.328;3.860;2023-03-24T08:15:32;14.60;;;2.73;;
30605;SDS011;17371;51.328;3.860;2023-03-24T08:17:58;12.47;;;2.83;;
30605;SDS011;17371;51.328;3.860;2023-03-24T08:20:23;14.57;;;2.80;;
30605;SDS011;17371;51.328;3.860;2023-03-24T08:22:49;19.30;;;3.03;;
30605;SDS011;17371;51.328;3.860;2023-03-24T08:25:15;16.93;;;3.00;;
30605;SDS011;17371;51.328;3.860;2023-03-24T08:27:41;11.20;;;3.13;;
30605;SDS011;17371;51.328;3.860;2023-03-24T08:30:07;13.67;;;3.00;;
30605;SDS011;17371;51.328;3.860;2023-03-24T08:32:35;15.15;;;3.08;;
30605;SDS011;17371;51.328;3.860;2023-03-24T08:35:01;15.18;;;2.75;;
30605;SDS011;17371;51.328;3.860;2023-03-24T08:37:26;17.47;;;3.00;;
30605;SDS011;17371;51.328;3.860;2023-03-24T08:39:52;15.57;;;2.70;;
30605;SDS011;17371;51.328;3.860;2023-03-24T08:42:17;15.40;;;2.55;;
30605;SDS011;17371;51.328;3.860;2023-03-24T08:44:43;11.33;;;2.47;;
30605;SDS011;17371;51.328;3.860;2023-03-24T08:47:08;16.03;;;2.73;;
30605;SDS011;17371;51.328;3.860;2023-03-24T08:49:35;17.40;;;2.77;;
30605;SDS011;17371;51.328;3.860;2023-03-24T08:52:00;15.15;;;2.47;;
30605;SDS011;17371;51.328;3.860;2023-03-24T08:54:25;12.70;;;2.70;;
30605;SDS011;17371;51.328;3.860;2023-03-24T08:56:51;16.20;;;2.90;;
30605;SDS011;17371;51.328;3.860;2023-03-24T08:59:16;14.60;;;2.40;;
30605;SDS011;17371;51.328;3.860;2023-03-24T09:01:42;14.75;;;2.70;;
30605;SDS011;17371;51.328;3.860;2023-03-24T09:04:07;14.37;;;2.23;;
30605;SDS011;17371;51.328;3.860;2023-03-24T09:06:34;16.37;;;2.60;;
30605;SDS011;17371;51.328;3.860;2023-03-24T09:08:59;10.18;;;2.47;;
30605;SDS011;17371;51.328;3.860;2023-03-24T09:11:25;13.17;;;2.47;;
30605;SDS011;17371;51.328;3.860;2023-03-24T09:13:50;14.07;;;2.53;;
30605;SDS011;17371;51.328;3.860;2023-03-24T09:16:16;14.30;;;2.83;;
30605;SDS011;17371;51.328;3.860;2023-03-24T09:18:41;15.67;;;2.70;;
30605;SDS011;17371;51.328;3.860;2023-03-24T09:21:07;10.50;;;3.10;;
30605;SDS011;17371;51.328;3.860;2023-03-24T09:23:34;14.10;;;2.95;;
30605;SDS011;17371;51.328;3.860;2023-03-24T09:26:00;13.67;;;2.50;;
30605;SDS011;17371;51.328;3.860;2023-03-24T09:28:26;12.65;;;2.58;;
30605;SDS011;17371;51.328;3.860;2023-03-24T09:30:55;9.27;;;2.23;;
30605;SDS011;17371;51.328;3.860;2023-03-24T09:33:21;13.52;;;2.50;;
30605;SDS011;17371;51.328;3.860;2023-03-24T09:35:51;15.33;;;2.67;;
30605;SDS011;17371;51.328;3.860;2023-03-24T09:38:17;8.30;;;2.20;;
30605;SDS011;17371;51.328;3.860;2023-03-24T09:40:44;14.40;;;2.27;;
30605;SDS011;17371;51.328;3.860;2023-03-24T09:43:14;14.90;;;2.78;;
30605;SDS011;17371;51.328;3.860;2023-03-24T09:45:47;13.90;;;2.53;;
30605;SDS011;17371;51.328;3.860;2023-03-24T09:48:15;12.35;;;2.80;;
30605;SDS011;17371;51.328;3.860;2023-03-24T09:50:47;9.20;;;2.30;;
30605;SDS011;17371;51.328;3.860;2023-03-24T09:53:14;15.23;;;2.65;;
30605;SDS011;17371;51.328;3.860;2023-03-24T09:55:46;10.60;;;2.80;;
30605;SDS011;17371;51.328;3.860;2023-03-24T09:58:12;12.73;;;2.67;;
30605;SDS011;17371;51.328;3.860;2023-03-24T10:00:38;11.17;;;2.80;;
30605;SDS011;17371;51.328;3.860;2023-03-24T10:03:10;15.50;;;2.60;;
30605;SDS011;17371;51.328;3.860;2023-03-24T10:05:39;14.10;;;3.10;;
30605;SDS011;17371;51.328;3.860;2023-03-24T10:08:09;10.82;;;2.83;;
30605;SDS011;17371;51.328;3.860;2023-03-24T10:10:39;13.45;;;2.70;;
30605;SDS011;17371;51.328;3.860;2023-03-24T10:13:10;11.70;;;2.60;;
30605;SDS011;17371;51.328;3.860;2023-03-24T10:15:41;14.02;;;3.05;;
30605;SDS011;17371;51.328;3.860;2023-03-24T10:18:17;13.07;;;3.07;;
30605;SDS011;17371;51.328;3.860;2023-03-24T10:20:49;27.90;;;3.30;;
30605;SDS011;17371;51.328;3.860;2023-03-24T10:23:19;15.82;;;3.03;;
30605;SDS011;17371;51.328;3.860;2023-03-24T10:25:51;12.82;;;2.70;;
30605;SDS011;17371;51.328;3.860;2023-03-24T10:28:21;11.93;;;2.50;;
30605;SDS011;17371;51.328;3.860;2023-03-24T10:30:49;8.23;;;1.80;;
30605;SDS011;17371;51.328;3.860;2023-03-24T10:33:15;14.60;;;2.30;;
30605;SDS011;17371;51.328;3.860;2023-03-24T10:35:41;10.80;;;2.63;;
30605;SDS011;17371;51.328;3.860;2023-03-24T10:38:13;9.00;;;1.93;;
30605;SDS011;17371;51.328;3.860;2023-03-24T10:40:40;11.30;;;2.00;;
30605;SDS011;17371;51.328;3.860;2023-03-24T10:43:06;8.32;;;2.05;;
30605;SDS011;17371;51.328;3.860;2023-03-24T10:45:33;7.90;;;2.17;;
30605;SDS011;17371;51.328;3.860;2023-03-24T10:48:00;8.38;;;1.60;;
30605;SDS011;17371;51.328;3.860;2023-03-24T10:50:27;8.93;;;2.03;;
30605;SDS011;17371;51.328;3.860;2023-03-24T10:52:54;5.90;;;1.60;;
30605;SDS011;17371;51.328;3.860;2023-03-24T10:55:20;5.32;;;1.60;;
30605;SDS011;17371;51.328;3.860;2023-03-24T10:57:47;7.23;;;1.80;;
30605;SDS011;17371;51.328;3.860;2023-03-24T11:00:15;6.88;;;1.70;;
30605;SDS011;17371;51.328;3.860;2023-03-24T11:02:44;7.25;;;1.98;;
30605;SDS011;17371;51.328;3.860;2023-03-24T11:05:19;8.48;;;1.70;;
30605;SDS011;17371;51.328;3.860;2023-03-24T11:07:47;5.07;;;1.40;;
30605;SDS011;17371;51.328;3.860;2023-03-24T11:10:14;9.77;;;1.67;;
30605;SDS011;17371;51.328;3.860;2023-03-24T11:12:41;7.32;;;1.70;;
30605;SDS011;17371;51.328;3.860;2023-03-24T11:15:16;4.53;;;1.13;;
30605;SDS011;17371;51.328;3.860;2023-03-24T11:17:44;5.78;;;1.80;;
30605;SDS011;17371;51.328;3.860;2023-03-24T11:20:17;10.85;;;1.73;;
30605;SDS011;17371;51.328;3.860;2023-03-24T11:25:28;6.90;;;1.70;;
30605;SDS011;17371;51.328;3.860;2023-03-24T11:27:56;6.68;;;1.70;;
30605;SDS011;17371;51.328;3.860;2023-03-24T11:30:31;8.55;;;1.90;;
30605;SDS011;17371;51.328;3.860;2023-03-24T11:32:59;6.38;;;1.88;;
30605;SDS011;17371;51.328;3.860;2023-03-24T11:35:24;7.37;;;1.50;;
30605;SDS011;17371;51.328;3.860;2023-03-24T11:37:50;7.30;;;1.92;;
30605;SDS011;17371;51.328;3.860;2023-03-24T11:40:17;6.70;;;1.70;;
30605;SDS011;17371;51.328;3.860;2023-03-24T11:42:46;7.43;;;1.80;;
30605;SDS011;17371;51.328;3.860;2023-03-24T11:45:22;9.93;;;1.85;;
30605;SDS011;17371;51.328;3.860;2023-03-24T11:47:50;9.00;;;2.00;;
30605;SDS011;17371;51.328;3.860;2023-03-24T11:50:17;2.33;;;0.93;;
30605;SDS011;17371;51.328;3.860;2023-03-24T11:52:45;3.00;;;1.10;;
30605;SDS011;17371;51.328;3.860;2023-03-24T11:55:14;3.47;;;0.90;;
30605;SDS011;17371;51.328;3.860;2023-03-24T11:57:44;3.50;;;1.23;;
30605;SDS011;17371;51.328;3.860;2023-03-24T12:00:13;4.90;;;1.40;;
30605;SDS011;17371;51.328;3.860;2023-03-24T12:02:47;3.33;;;1.40;;
30605;SDS011;17371;51.328;3.860;2023-03-24T12:05:27;4.30;;;1.40;;
30605;SDS011;17371;51.328;3.860;2023-03-24T12:07:58;7.82;;;1.90;;
30605;SDS011;17371;51.328;3.860;2023-03-24T12:10:32;6.83;;;1.63;;
30605;SDS011;17371;51.328;3.860;2023-03-24T12:13:06;6.85;;;1.33;;
30605;SDS011;17371;51.328;3.860;2023-03-24T12:15:39;7.47;;;1.50;;
30605;SDS011;17371;51.328;3.860;2023-03-24T12:18:18;9.55;;;1.73;;
30605;SDS011;17371;51.328;3.860;2023-03-24T12:20:56;6.13;;;1.63;;
30605;SDS011;17371;51.328;3.860;2023-03-24T12:23:24;9.97;;;1.80;;
30605;SDS011;17371;51.328;3.860;2023-03-24T12:28:44;5.68;;;1.60;;
30605;SDS011;17371;51.328;3.860;2023-03-24T12:31:21;8.20;;;1.83;;
30605;SDS011;17371;51.328;3.860;2023-03-24T12:33:58;6.55;;;1.77;;
30605;SDS011;17371;51.328;3.860;2023-03-24T12:36:41;7.10;;;1.67;;
30605;SDS011;17371;51.328;3.860;2023-03-24T12:39:11;8.40;;;1.70;;
30605;SDS011;17371;51.328;3.860;2023-03-24T12:41:39;9.98;;;1.80;;
30605;SDS011;17371;51.328;3.860;2023-03-24T12:47:10;8.60;;;2.20;;
30605;SDS011;17371;51.328;3.860;2023-03-24T12:49:46;10.63;;;2.30;;
30605;SDS011;17371;51.328;3.860;2023-03-24T12:52:22;6.97;;;1.70;;
30605;SDS011;17371;51.328;3.860;2023-03-24T12:54:57;5.57;;;1.30;;
30605;SDS011;17371;51.328;3.860;2023-03-24T12:57:25;4.93;;;1.30;;
30605;SDS011;17371;51.328;3.860;2023-03-24T12:59:53;6.07;;;1.40;;
30605;SDS011;17371;51.328;3.860;2023-03-24T13:02:23;6.53;;;1.67;;
30605;SDS011;17371;51.328;3.860;2023-03-24T13:04:52;7.28;;;1.83;;
30605;SDS011;17371;51.328;3.860;2023-03-24T13:07:20;9.48;;;2.05;;
30605;SDS011;17371;51.328;3.860;2023-03-24T13:09:49;9.82;;;2.13;;
30605;SDS011;17371;51.328;3.860;2023-03-24T13:12:18;8.57;;;1.92;;
30605;SDS011;17371;51.328;3.860;2023-03-24T13:14:49;8.20;;;1.60;;
30605;SDS011;17371;51.328;3.860;2023-03-24T13:17:18;7.38;;;1.70;;
30605;SDS011;17371;51.328;3.860;2023-03-24T13:19:45;7.90;;;1.60;;
30605;SDS011;17371;51.328;3.860;2023-03-24T13:22:13;8.63;;;1.65;;
30605;SDS011;17371;51.328;3.860;2023-03-24T13:24:41;8.18;;;1.85;;
30605;SDS011;17371;51.328;3.860;2023-03-24T13:27:08;9.53;;;1.73;;
30605;SDS011;17371;51.328;3.860;2023-03-24T13:29:49;7.10;;;1.42;;
30605;SDS011;17371;51.328;3.860;2023-03-24T13:32:26;10.57;;;1.63;;
30605;SDS011;17371;51.328;3.860;2023-03-24T13:34:54;5.25;;;1.63;;
30605;SDS011;17371;51.328;3.860;2023-03-24T13:37:24;8.57;;;2.50;;
30605;SDS011;17371;51.328;3.860;2023-03-24T13:39:52;7.20;;;1.77;;
30605;SDS011;17371;51.328;3.860;2023-03-24T13:42:28;9.00;;;1.98;;
30605;SDS011;17371;51.328;3.860;2023-03-24T13:44:56;11.23;;;2.05;;
30605;SDS011;17371;51.328;3.860;2023-03-24T13:47:23;9.82;;;1.90;;
30605;SDS011;17371;51.328;3.860;2023-03-24T13:49:51;8.83;;;1.80;;
30605;SDS011;17371;51.328;3.860;2023-03-24T13:52:19;7.25;;;1.77;;
30605;SDS011;17371;51.328;3.860;2023-03-24T13:54:47;7.38;;;1.75;;
30605;SDS011;17371;51.328;3.860;2023-03-24T13:57:15;11.60;;;1.80;;
30605;SDS011;17371;51.328;3.860;2023-03-24T13:59:56;7.90;;;1.63;;
30605;SDS011;17371;51.328;3.860;2023-03-24T14:02:39;9.20;;;1.88;;
30605;SDS011;17371;51.328;3.860;2023-03-24T14:05:07;8.73;;;1.98;;
30605;SDS011;17371;51.328;3.860;2023-03-24T14:07:41;8.15;;;1.50;;
30605;SDS011;17371;51.328;3.860;2023-03-24T14:10:26;5.63;;;1.50;;
30605;SDS011;17371;51.328;3.860;2023-03-24T14:13:21;4.70;;;1.25;;
30605;SDS011;17371;51.328;3.860;2023-03-24T14:15:48;4.25;;;1.33;;
30605;SDS011;17371;51.328;3.860;2023-03-24T14:18:17;8.60;;;1.90;;
30605;SDS011;17371;51.328;3.860;2023-03-24T14:21:04;6.18;;;1.50;;
30605;SDS011;17371;51.328;3.860;2023-03-24T14:23:33;9.83;;;1.60;;
30605;SDS011;17371;51.328;3.860;2023-03-24T14:25:59;4.40;;;1.10;;
30605;SDS011;17371;51.328;3.860;2023-03-24T14:28:27;6.25;;;1.20;;
30605;SDS011;17371;51.328;3.860;2023-03-24T14:31:02;7.28;;;1.70;;
30605;SDS011;17371;51.328;3.860;2023-03-24T14:33:33;10.43;;;1.57;;
30605;SDS011;17371;51.328;3.860;2023-03-24T14:36:00;8.23;;;1.50;;
30605;SDS011;17371;51.328;3.860;2023-03-24T14:38:27;5.63;;;1.63;;
30605;SDS011;17371;51.328;3.860;2023-03-24T14:40:55;8.85;;;2.25;;
30605;SDS011;17371;51.328;3.860;2023-03-24T14:43:22;5.23;;;1.73;;
30605;SDS011;17371;51.328;3.860;2023-03-24T14:45:54;9.43;;;1.45;;
30605;SDS011;17371;51.328;3.860;2023-03-24T14:48:27;9.07;;;2.17;;
30605;SDS011;17371;51.328;3.860;2023-03-24T14:50:53;7.47;;;1.40;;
30605;SDS011;17371;51.328;3.860;2023-03-24T14:53:23;6.28;;;1.60;;
30605;SDS011;17371;51.328;3.860;2023-03-24T14:55:48;7.90;;;1.37;;
30605;SDS011;17371;51.328;3.860;2023-03-24T14:58:17;7.25;;;1.70;;
30605;SDS011;17371;51.328;3.860;2023-03-24T15:00:46;7.57;;;1.80;;